Centerton, Indiana
Current Conditions -  °F | °C
As of 11:15 AM on Sunday 23 Nov 2014 (Local Time) from K1II Reporting Station
Light Rain Light Rain  
Wind Chill: 54°   Ceiling: 3700
Heat Index: 54°   Visibility: 10mi
Dew Point: 45°   Wind: 8mph
Humidity: 72%   Direction: 160°SSE
Pressure: 29.83"   Gusts: NA
Location:  39.4615°N, 86.4578°W
Report Text: K1II 231615Z AUTO 16007KT 10SM -RA SCT030 BKN037 OVC060 12/07 A2983 RMK AO2
Loading
Personal Weather Stations






























Interactive Weather Map New forecast layout! Learn more

10-Day Weather Forecast

Advertisements
Track Severe Weather on mobile